Terminal Aerodrome Forecast
Issued by NWS Sioux Falls, SD

Home | Current Version | Previous Version | Text Only | Print | Product List | Glossary On
Versions: 1 2 3 4 5 6 7 8 9 10 11 12 13 14
273
FTUS43 KFSD 290520
TAFFSD
TAF
KFSD 290520Z 2906/3006 VRB03KT P6SM FEW250
     FM291500 06007KT P6SM BKN090
     FM291800 07007KT P6SM BKN080
     FM300000 07006KT P6SM SHRA VCTS BKN060CB
     FM300300 03004KT P6SM BKN090=

USA.gov is the U.S. government's official web portal to all federal, state and local government web resources and services.